sensor_id;sensor_type;location;lat;lon;timestamp;temperature;humidity
30150;DHT22;16962;48.646;9.026;2023-09-07T00:02:50;13.40;99.90
30150;DHT22;16962;48.646;9.026;2023-09-07T00:06:23;13.30;99.90
30150;DHT22;16962;48.646;9.026;2023-09-07T00:13:54;13.20;99.90
30150;DHT22;16962;48.646;9.026;2023-09-07T00:17:22;13.40;99.90
30150;DHT22;16962;48.646;9.026;2023-09-07T00:20:46;13.50;99.90
30150;DHT22;16962;48.646;9.026;2023-09-07T00:23:35;13.50;99.90
30150;DHT22;16962;48.646;9.026;2023-09-07T00:26:22;13.40;99.90
30150;DHT22;16962;48.646;9.026;2023-09-07T00:29:10;13.40;99.90
30150;DHT22;16962;48.646;9.026;2023-09-07T00:32:06;13.30;99.90
30150;DHT22;16962;48.646;9.026;2023-09-07T00:34:56;13.20;99.90
30150;DHT22;16962;48.646;9.026;2023-09-07T00:37:47;13.20;99.90
30150;DHT22;16962;48.646;9.026;2023-09-07T00:40:44;13.20;99.90
30150;DHT22;16962;48.646;9.026;2023-09-07T00:43:49;13.20;99.90
30150;DHT22;16962;48.646;9.026;2023-09-07T00:46:36;13.20;99.90
30150;DHT22;16962;48.646;9.026;2023-09-07T00:49:25;13.20;99.90
30150;DHT22;16962;48.646;9.026;2023-09-07T00:56:21;13.30;99.90
30150;DHT22;16962;48.646;9.026;2023-09-07T00:59:18;13.30;99.90
30150;DHT22;16962;48.646;9.026;2023-09-07T01:02:06;13.30;99.90
30150;DHT22;16962;48.646;9.026;2023-09-07T01:04:56;13.30;99.90
30150;DHT22;16962;48.646;9.026;2023-09-07T01:07:47;13.20;99.90
30150;DHT22;16962;48.646;9.026;2023-09-07T01:10:37;13.10;99.90
30150;DHT22;16962;48.646;9.026;2023-09-07T01:13:26;13.00;99.90
30150;DHT22;16962;48.646;9.026;2023-09-07T01:16:15;13.00;99.90
30150;DHT22;16962;48.646;9.026;2023-09-07T01:19:06;12.90;99.90
30150;DHT22;16962;48.646;9.026;2023-09-07T01:22:12;13.00;99.90
30150;DHT22;16962;48.646;9.026;2023-09-07T01:25:05;13.00;99.90
30150;DHT22;16962;48.646;9.026;2023-09-07T01:28:02;13.00;99.90
30150;DHT22;16962;48.646;9.026;2023-09-07T01:30:51;12.90;99.90
30150;DHT22;16962;48.646;9.026;2023-09-07T01:33:45;12.80;99.90
30150;DHT22;16962;48.646;9.026;2023-09-07T01:36:35;12.80;99.90
30150;DHT22;16962;48.646;9.026;2023-09-07T01:39:27;12.70;99.90
30150;DHT22;16962;48.646;9.026;2023-09-07T01:42:17;12.70;99.90
30150;DHT22;16962;48.646;9.026;2023-09-07T01:45:12;12.70;99.90
30150;DHT22;16962;48.646;9.026;2023-09-07T01:48:00;12.80;99.90
30150;DHT22;16962;48.646;9.026;2023-09-07T01:50:53;12.70;99.90
30150;DHT22;16962;48.646;9.026;2023-09-07T01:53:41;12.70;99.90
30150;DHT22;16962;48.646;9.026;2023-09-07T01:56:28;12.70;99.90
30150;DHT22;16962;48.646;9.026;2023-09-07T01:59:17;12.60;99.90
30150;DHT22;16962;48.646;9.026;2023-09-07T02:02:07;12.60;99.90
30150;DHT22;16962;48.646;9.026;2023-09-07T02:04:59;12.60;99.90
30150;DHT22;16962;48.646;9.026;2023-09-07T02:07:53;12.60;99.90
30150;DHT22;16962;48.646;9.026;2023-09-07T02:10:47;12.60;99.90
30150;DHT22;16962;48.646;9.026;2023-09-07T02:13:41;12.60;99.90
30150;DHT22;16962;48.646;9.026;2023-09-07T02:16:52;12.50;99.90
30150;DHT22;16962;48.646;9.026;2023-09-07T02:19:47;12.50;99.90
30150;DHT22;16962;48.646;9.026;2023-09-07T02:23:19;12.40;99.90
30150;DHT22;16962;48.646;9.026;2023-09-07T02:26:09;12.40;99.90
30150;DHT22;16962;48.646;9.026;2023-09-07T02:29:04;12.30;99.90
30150;DHT22;16962;48.646;9.026;2023-09-07T02:31:58;12.20;99.90
30150;DHT22;16962;48.646;9.026;2023-09-07T02:34:48;12.20;99.90
30150;DHT22;16962;48.646;9.026;2023-09-07T02:37:41;12.20;99.90
30150;DHT22;16962;48.646;9.026;2023-09-07T02:41:08;12.20;99.90
30150;DHT22;16962;48.646;9.026;2023-09-07T02:43:57;12.20;99.90
30150;DHT22;16962;48.646;9.026;2023-09-07T02:47:08;12.20;99.90
30150;DHT22;16962;48.646;9.026;2023-09-07T02:50:09;12.10;99.90
30150;DHT22;16962;48.646;9.026;2023-09-07T02:53:07;12.10;99.90
30150;DHT22;16962;48.646;9.026;2023-09-07T02:56:03;12.00;99.90
30150;DHT22;16962;48.646;9.026;2023-09-07T02:59:07;12.00;99.90
30150;DHT22;16962;48.646;9.026;2023-09-07T03:01:55;12.10;99.90
30150;DHT22;16962;48.646;9.026;2023-09-07T03:04:43;12.00;99.90
30150;DHT22;16962;48.646;9.026;2023-09-07T03:07:33;11.90;99.90
30150;DHT22;16962;48.646;9.026;2023-09-07T03:10:22;11.90;99.90
30150;DHT22;16962;48.646;9.026;2023-09-07T03:13:31;11.90;99.90
30150;DHT22;16962;48.646;9.026;2023-09-07T03:16:21;11.80;99.90
30150;DHT22;16962;48.646;9.026;2023-09-07T03:19:29;11.80;99.90
30150;DHT22;16962;48.646;9.026;2023-09-07T03:22:18;11.70;99.90
30150;DHT22;16962;48.646;9.026;2023-09-07T03:25:09;11.70;99.90
30150;DHT22;16962;48.646;9.026;2023-09-07T03:28:02;11.60;99.90
30150;DHT22;16962;48.646;9.026;2023-09-07T03:30:52;11.50;99.90
30150;DHT22;16962;48.646;9.026;2023-09-07T03:33:43;11.50;99.90
30150;DHT22;16962;48.646;9.026;2023-09-07T03:36:30;11.50;99.90
30150;DHT22;16962;48.646;9.026;2023-09-07T03:39:24;11.50;99.90
30150;DHT22;16962;48.646;9.026;2023-09-07T03:42:13;11.40;99.90
30150;DHT22;16962;48.646;9.026;2023-09-07T03:45:23;11.40;99.90
30150;DHT22;16962;48.646;9.026;2023-09-07T03:48:32;11.40;99.90
30150;DHT22;16962;48.646;9.026;2023-09-07T03:51:27;11.50;99.90
30150;DHT22;16962;48.646;9.026;2023-09-07T03:54:26;11.40;99.90
30150;DHT22;16962;48.646;9.026;2023-09-07T03:57:18;11.40;99.90
30150;DHT22;16962;48.646;9.026;2023-09-07T04:00:08;11.40;99.90
30150;DHT22;16962;48.646;9.026;2023-09-07T04:03:17;11.50;99.90
30150;DHT22;16962;48.646;9.026;2023-09-07T04:06:21;11.40;99.90
30150;DHT22;16962;48.646;9.026;2023-09-07T04:09:30;11.40;99.90
30150;DHT22;16962;48.646;9.026;2023-09-07T04:12:21;11.30;99.90
30150;DHT22;16962;48.646;9.026;2023-09-07T04:15:28;11.30;99.90
30150;DHT22;16962;48.646;9.026;2023-09-07T04:18:25;11.20;99.90
30150;DHT22;16962;48.646;9.026;2023-09-07T04:21:44;11.20;99.90
30150;DHT22;16962;48.646;9.026;2023-09-07T04:24:48;11.40;99.90
30150;DHT22;16962;48.646;9.026;2023-09-07T04:27:42;11.50;99.90
30150;DHT22;16962;48.646;9.026;2023-09-07T04:30:33;11.40;99.90
30150;DHT22;16962;48.646;9.026;2023-09-07T04:33:22;11.40;99.90
30150;DHT22;16962;48.646;9.026;2023-09-07T04:36:26;11.30;99.90
30150;DHT22;16962;48.646;9.026;2023-09-07T04:39:16;11.30;99.90
30150;DHT22;16962;48.646;9.026;2023-09-07T04:42:08;11.30;99.90
30150;DHT22;16962;48.646;9.026;2023-09-07T04:44:56;11.20;99.90
30150;DHT22;16962;48.646;9.026;2023-09-07T04:47:46;11.20;99.90
30150;DHT22;16962;48.646;9.026;2023-09-07T04:50:38;11.10;99.90
30150;DHT22;16962;48.646;9.026;2023-09-07T04:57:15;11.20;99.90
30150;DHT22;16962;48.646;9.026;2023-09-07T05:00:20;11.20;99.90
30150;DHT22;16962;48.646;9.026;2023-09-07T05:03:50;11.30;99.90
30150;DHT22;16962;48.646;9.026;2023-09-07T05:11:18;11.40;99.90
30150;DHT22;16962;48.646;9.026;2023-09-07T05:14:18;11.50;99.90
30150;DHT22;16962;48.646;9.026;2023-09-07T05:17:28;11.40;99.90
30150;DHT22;16962;48.646;9.026;2023-09-07T05:20:23;11.40;99.90
30150;DHT22;16962;48.646;9.026;2023-09-07T05:23:12;11.40;99.90
30150;DHT22;16962;48.646;9.026;2023-09-07T05:26:21;11.40;99.90
30150;DHT22;16962;48.646;9.026;2023-09-07T05:29:21;11.50;99.90
30150;DHT22;16962;48.646;9.026;2023-09-07T05:32:41;11.60;99.90
30150;DHT22;16962;48.646;9.026;2023-09-07T05:35:31;11.70;99.90
30150;DHT22;16962;48.646;9.026;2023-09-07T05:38:23;11.80;99.90
30150;DHT22;16962;48.646;9.026;2023-09-07T05:41:24;11.90;99.90
30150;DHT22;16962;48.646;9.026;2023-09-07T05:44:19;12.00;99.90
30150;DHT22;16962;48.646;9.026;2023-09-07T05:47:17;12.10;99.90
30150;DHT22;16962;48.646;9.026;2023-09-07T05:50:18;12.10;99.90
30150;DHT22;16962;48.646;9.026;2023-09-07T05:53:18;12.20;99.90
30150;DHT22;16962;48.646;9.026;2023-09-07T05:56:45;12.40;99.90
30150;DHT22;16962;48.646;9.026;2023-09-07T06:03:37;12.40;99.90
30150;DHT22;16962;48.646;9.026;2023-09-07T06:09:51;12.50;99.90
30150;DHT22;16962;48.646;9.026;2023-09-07T06:12:39;12.70;99.90
30150;DHT22;16962;48.646;9.026;2023-09-07T06:15:29;12.80;99.90
30150;DHT22;16962;48.646;9.026;2023-09-07T06:18:18;13.00;99.90
30150;DHT22;16962;48.646;9.026;2023-09-07T06:21:10;13.30;99.90
30150;DHT22;16962;48.646;9.026;2023-09-07T06:24:09;13.50;99.90
30150;DHT22;16962;48.646;9.026;2023-09-07T06:27:10;13.80;99.90
30150;DHT22;16962;48.646;9.026;2023-09-07T06:30:26;13.90;99.90
30150;DHT22;16962;48.646;9.026;2023-09-07T06:34:12;14.10;99.90
30150;DHT22;16962;48.646;9.026;2023-09-07T06:37:25;14.30;99.90
30150;DHT22;16962;48.646;9.026;2023-09-07T06:40:35;14.40;99.90
30150;DHT22;16962;48.646;9.026;2023-09-07T07:03:20;15.90;99.90
30150;DHT22;16962;48.646;9.026;2023-09-07T07:06:24;16.00;1.00
30150;DHT22;16962;48.646;9.026;2023-09-07T07:09:24;16.30;99.90
30150;DHT22;16962;48.646;9.026;2023-09-07T07:29:24;17.30;18.60
30150;DHT22;16962;48.646;9.026;2023-09-07T07:57:24;18.70;99.90
30150;DHT22;16962;48.646;9.026;2023-09-07T08:00:49;18.90;1.00
30150;DHT22;16962;48.646;9.026;2023-09-07T08:08:53;19.40;99.90
30150;DHT22;16962;48.646;9.026;2023-09-07T08:20:34;21.80;99.90
30150;DHT22;16962;48.646;9.026;2023-09-07T08:27:34;23.80;1.00
30150;DHT22;16962;48.646;9.026;2023-09-07T08:38:48;25.40;99.90
30150;DHT22;16962;48.646;9.026;2023-09-07T08:50:39;27.10;99.90
30150;DHT22;16962;48.646;9.026;2023-09-07T08:53:43;27.80;99.90
30150;DHT22;16962;48.646;9.026;2023-09-07T08:57:13;27.90;99.90
30150;DHT22;16962;48.646;9.026;2023-09-07T09:08:29;30.10;99.90
30150;DHT22;16962;48.646;9.026;2023-09-07T09:19:19;30.40;99.90
30150;DHT22;16962;48.646;9.026;2023-09-07T09:22:09;29.80;99.90
30150;DHT22;16962;48.646;9.026;2023-09-07T09:25:32;29.70;99.90
30150;DHT22;16962;48.646;9.026;2023-09-07T09:38:57;30.30;95.20
30150;DHT22;16962;48.646;9.026;2023-09-07T09:42:27;31.00;77.30
30150;DHT22;16962;48.646;9.026;2023-09-07T09:53:23;31.10;60.20
30150;DHT22;16962;48.646;9.026;2023-09-07T09:56:38;31.30;47.60
30150;DHT22;16962;48.646;9.026;2023-09-07T09:59:25;31.60;43.70
30150;DHT22;16962;48.646;9.026;2023-09-07T10:02:37;31.80;40.30
30150;DHT22;16962;48.646;9.026;2023-09-07T10:10:22;32.20;35.20
30150;DHT22;16962;48.646;9.026;2023-09-07T10:13:46;32.50;36.30
30150;DHT22;16962;48.646;9.026;2023-09-07T10:20:49;33.10;21.40
30150;DHT22;16962;48.646;9.026;2023-09-07T10:24:56;32.80;21.80
30150;DHT22;16962;48.646;9.026;2023-09-07T10:28:05;32.70;18.90
30150;DHT22;16962;48.646;9.026;2023-09-07T10:31:13;32.80;8.70
30150;DHT22;16962;48.646;9.026;2023-09-07T10:34:35;33.00;4.10
30150;DHT22;16962;48.646;9.026;2023-09-07T10:41:35;33.30;3.40
30150;DHT22;16962;48.646;9.026;2023-09-07T10:45:07;33.90;3.90
30150;DHT22;16962;48.646;9.026;2023-09-07T10:48:15;34.40;3.40
30150;DHT22;16962;48.646;9.026;2023-09-07T10:51:04;34.30;1.00
30150;DHT22;16962;48.646;9.026;2023-09-07T11:02:14;34.80;1.00
30150;DHT22;16962;48.646;9.026;2023-09-07T11:13:09;34.10;1.00
30150;DHT22;16962;48.646;9.026;2023-09-07T11:16:40;34.20;1.00
30150;DHT22;16962;48.646;9.026;2023-09-07T11:19:34;34.70;1.00
30150;DHT22;16962;48.646;9.026;2023-09-07T11:22:44;35.10;1.00
30150;DHT22;16962;48.646;9.026;2023-09-07T11:29:25;35.30;1.00
30150;DHT22;16962;48.646;9.026;2023-09-07T11:37:02;34.40;1.00
30150;DHT22;16962;48.646;9.026;2023-09-07T11:40:27;34.30;1.00
30150;DHT22;16962;48.646;9.026;2023-09-07T11:48:04;33.80;1.00
30150;DHT22;16962;48.646;9.026;2023-09-07T11:51:10;33.30;1.00
30150;DHT22;16962;48.646;9.026;2023-09-07T11:54:54;33.50;1.00
30150;DHT22;16962;48.646;9.026;2023-09-07T12:02:13;34.10;1.00
30150;DHT22;16962;48.646;9.026;2023-09-07T12:05:02;34.50;1.00
30150;DHT22;16962;48.646;9.026;2023-09-07T12:12:13;35.60;1.00
30150;DHT22;16962;48.646;9.026;2023-09-07T12:16:02;36.60;1.00
30150;DHT22;16962;48.646;9.026;2023-09-07T12:19:46;35.50;1.00
30150;DHT22;16962;48.646;9.026;2023-09-07T12:23:33;35.60;1.00
30150;DHT22;16962;48.646;9.026;2023-09-07T12:41:53;36.70;1.00
30150;DHT22;16962;48.646;9.026;2023-09-07T12:44:46;36.10;1.00
30150;DHT22;16962;48.646;9.026;2023-09-07T13:00:27;35.90;1.00
30150;DHT22;16962;48.646;9.026;2023-09-07T13:08:22;36.10;1.00
30150;DHT22;16962;48.646;9.026;2023-09-07T13:39:13;36.20;1.00
30150;DHT22;16962;48.646;9.026;2023-09-07T13:42:47;35.70;1.00
30150;DHT22;16962;48.646;9.026;2023-09-07T13:49:54;35.90;1.00
30150;DHT22;16962;48.646;9.026;2023-09-07T13:53:07;36.00;1.00
30150;DHT22;16962;48.646;9.026;2023-09-07T13:56:05;36.40;1.00
30150;DHT22;16962;48.646;9.026;2023-09-07T14:03:30;36.60;1.00
30150;DHT22;16962;48.646;9.026;2023-09-07T14:15:21;37.20;1.00
30150;DHT22;16962;48.646;9.026;2023-09-07T14:19:11;37.10;1.00
30150;DHT22;16962;48.646;9.026;2023-09-07T14:23:08;37.00;1.00
30150;DHT22;16962;48.646;9.026;2023-09-07T14:26:16;36.40;1.00
30150;DHT22;16962;48.646;9.026;2023-09-07T14:36:49;34.90;1.00
30150;DHT22;16962;48.646;9.026;2023-09-07T14:43:58;34.90;1.00
30150;DHT22;16962;48.646;9.026;2023-09-07T14:47:17;33.90;1.00
30150;DHT22;16962;48.646;9.026;2023-09-07T14:51:02;33.70;1.00
30150;DHT22;16962;48.646;9.026;2023-09-07T14:54:12;34.20;1.00
30150;DHT22;16962;48.646;9.026;2023-09-07T15:10:05;35.50;1.00
30150;DHT22;16962;48.646;9.026;2023-09-07T15:13:26;34.30;1.00
30150;DHT22;16962;48.646;9.026;2023-09-07T15:28:50;33.60;1.00
30150;DHT22;16962;48.646;9.026;2023-09-07T15:32:37;33.60;1.00
30150;DHT22;16962;48.646;9.026;2023-09-07T15:53:59;33.70;1.00
30150;DHT22;16962;48.646;9.026;2023-09-07T16:07:28;32.80;1.00
30150;DHT22;16962;48.646;9.026;2023-09-07T16:10:35;31.40;1.00
30150;DHT22;16962;48.646;9.026;2023-09-07T16:29:10;30.00;1.00
30150;DHT22;16962;48.646;9.026;2023-09-07T16:32:06;29.90;1.00
30150;DHT22;16962;48.646;9.026;2023-09-07T16:36:14;29.10;1.00
30150;DHT22;16962;48.646;9.026;2023-09-07T16:56:03;25.70;1.00
30150;DHT22;16962;48.646;9.026;2023-09-07T16:59:27;25.50;1.00
30150;DHT22;16962;48.646;9.026;2023-09-07T17:03:06;25.40;1.00
30150;DHT22;16962;48.646;9.026;2023-09-07T17:10:37;25.00;1.00
30150;DHT22;16962;48.646;9.026;2023-09-07T17:13:51;24.90;1.00
30150;DHT22;16962;48.646;9.026;2023-09-07T17:21:19;24.60;1.00
30150;DHT22;16962;48.646;9.026;2023-09-07T17:24:37;24.40;1.00
30150;DHT22;16962;48.646;9.026;2023-09-07T17:27:50;24.30;1.00
30150;DHT22;16962;48.646;9.026;2023-09-07T17:30:55;24.10;1.00
30150;DHT22;16962;48.646;9.026;2023-09-07T17:33:46;24.10;1.00
30150;DHT22;16962;48.646;9.026;2023-09-07T17:36:45;23.90;1.00
30150;DHT22;16962;48.646;9.026;2023-09-07T17:40:05;23.80;1.00
30150;DHT22;16962;48.646;9.026;2023-09-07T17:42:52;23.70;1.00
30150;DHT22;16962;48.646;9.026;2023-09-07T17:45:40;23.60;1.00
30150;DHT22;16962;48.646;9.026;2023-09-07T17:48:27;23.40;1.00
30150;DHT22;16962;48.646;9.026;2023-09-07T17:51:15;23.30;1.00
30150;DHT22;16962;48.646;9.026;2023-09-07T17:54:02;23.20;1.00
30150;DHT22;16962;48.646;9.026;2023-09-07T17:56:50;23.00;1.00
30150;DHT22;16962;48.646;9.026;2023-09-07T17:59:37;22.90;1.00
30150;DHT22;16962;48.646;9.026;2023-09-07T18:02:27;22.80;1.00
30150;DHT22;16962;48.646;9.026;2023-09-07T18:05:17;22.70;1.00
30150;DHT22;16962;48.646;9.026;2023-09-07T18:08:08;22.60;1.00
30150;DHT22;16962;48.646;9.026;2023-09-07T18:10:55;22.40;1.00
30150;DHT22;16962;48.646;9.026;2023-09-07T18:13:46;22.30;1.00
30150;DHT22;16962;48.646;9.026;2023-09-07T18:16:37;22.20;1.00
30150;DHT22;16962;48.646;9.026;2023-09-07T18:19:27;22.00;1.00
30150;DHT22;16962;48.646;9.026;2023-09-07T18:22:14;21.90;1.00
30150;DHT22;16962;48.646;9.026;2023-09-07T18:25:01;21.70;3.70
30150;DHT22;16962;48.646;9.026;2023-09-07T18:27:52;21.70;13.70
30150;DHT22;16962;48.646;9.026;2023-09-07T18:30:42;21.60;12.90
30150;DHT22;16962;48.646;9.026;2023-09-07T18:33:30;21.50;25.10
30150;DHT22;16962;48.646;9.026;2023-09-07T18:36:17;21.40;37.00
30150;DHT22;16962;48.646;9.026;2023-09-07T18:39:04;21.40;47.80
30150;DHT22;16962;48.646;9.026;2023-09-07T18:41:55;21.30;59.70
30150;DHT22;16962;48.646;9.026;2023-09-07T18:44:43;21.30;71.00
30150;DHT22;16962;48.646;9.026;2023-09-07T18:47:31;21.20;86.70
30150;DHT22;16962;48.646;9.026;2023-09-07T18:50:24;21.10;93.20
30150;DHT22;16962;48.646;9.026;2023-09-07T18:53:13;21.00;99.90
30150;DHT22;16962;48.646;9.026;2023-09-07T18:56:02;20.90;99.90
30150;DHT22;16962;48.646;9.026;2023-09-07T18:58:49;20.70;99.90
30150;DHT22;16962;48.646;9.026;2023-09-07T19:01:39;20.70;99.90
30150;DHT22;16962;48.646;9.026;2023-09-07T19:04:26;20.50;99.90
30150;DHT22;16962;48.646;9.026;2023-09-07T19:07:21;20.40;99.90
30150;DHT22;16962;48.646;9.026;2023-09-07T19:10:10;20.30;99.90
30150;DHT22;16962;48.646;9.026;2023-09-07T19:13:00;20.30;99.90
30150;DHT22;16962;48.646;9.026;2023-09-07T19:15:49;20.20;99.90
30150;DHT22;16962;48.646;9.026;2023-09-07T19:18:37;20.20;99.90
30150;DHT22;16962;48.646;9.026;2023-09-07T19:21:24;20.10;99.90
30150;DHT22;16962;48.646;9.026;2023-09-07T19:24:12;20.10;99.90
30150;DHT22;16962;48.646;9.026;2023-09-07T19:27:00;20.00;99.90
30150;DHT22;16962;48.646;9.026;2023-09-07T19:29:48;19.90;99.90
30150;DHT22;16962;48.646;9.026;2023-09-07T19:32:38;19.90;99.90
30150;DHT22;16962;48.646;9.026;2023-09-07T19:35:28;19.80;99.90
30150;DHT22;16962;48.646;9.026;2023-09-07T19:38:15;19.80;99.90
30150;DHT22;16962;48.646;9.026;2023-09-07T19:41:03;19.70;99.90
30150;DHT22;16962;48.646;9.026;2023-09-07T19:43:51;19.50;99.90
30150;DHT22;16962;48.646;9.026;2023-09-07T19:46:38;19.50;99.90
30150;DHT22;16962;48.646;9.026;2023-09-07T19:53:52;19.40;99.90
30150;DHT22;16962;48.646;9.026;2023-09-07T19:57:26;19.20;99.90
30150;DHT22;16962;48.646;9.026;2023-09-07T20:00:59;19.00;99.90
30150;DHT22;16962;48.646;9.026;2023-09-07T20:04:32;18.90;99.90
30150;DHT22;16962;48.646;9.026;2023-09-07T20:08:02;18.80;99.90
30150;DHT22;16962;48.646;9.026;2023-09-07T20:15:23;18.40;1.00
30150;DHT22;16962;48.646;9.026;2023-09-07T20:18:20;18.10;1.00
30150;DHT22;16962;48.646;9.026;2023-09-07T20:21:32;17.80;99.90
30150;DHT22;16962;48.646;9.026;2023-09-07T20:24:59;17.60;99.90
30150;DHT22;16962;48.646;9.026;2023-09-07T20:27:59;17.50;99.90
30150;DHT22;16962;48.646;9.026;2023-09-07T20:31:01;17.30;5.90
30150;DHT22;16962;48.646;9.026;2023-09-07T20:34:06;17.20;99.90
30150;DHT22;16962;48.646;9.026;2023-09-07T20:37:20;17.10;99.90
30150;DHT22;16962;48.646;9.026;2023-09-07T20:40:30;17.00;99.90
30150;DHT22;16962;48.646;9.026;2023-09-07T20:43:28;16.90;1.00
30150;DHT22;16962;48.646;9.026;2023-09-07T20:46:22;16.90;99.90
30150;DHT22;16962;48.646;9.026;2023-09-07T20:49:24;16.90;1.00
30150;DHT22;16962;48.646;9.026;2023-09-07T20:52:17;16.80;99.90
30150;DHT22;16962;48.646;9.026;2023-09-07T20:55:09;16.70;92.80
30150;DHT22;16962;48.646;9.026;2023-09-07T20:58:00;16.60;29.20
30150;DHT22;16962;48.646;9.026;2023-09-07T21:01:06;16.50;1.00
30150;DHT22;16962;48.646;9.026;2023-09-07T21:03:57;16.50;1.00
30150;DHT22;16962;48.646;9.026;2023-09-07T21:06:48;16.40;1.00
30150;DHT22;16962;48.646;9.026;2023-09-07T21:09:40;16.40;1.00
30150;DHT22;16962;48.646;9.026;2023-09-07T21:12:58;16.30;99.90
30150;DHT22;16962;48.646;9.026;2023-09-07T21:15:49;16.30;99.90
30150;DHT22;16962;48.646;9.026;2023-09-07T21:18:42;16.30;1.00
30150;DHT22;16962;48.646;9.026;2023-09-07T21:21:42;16.20;17.40
30150;DHT22;16962;48.646;9.026;2023-09-07T21:24:40;16.30;99.90
30150;DHT22;16962;48.646;9.026;2023-09-07T21:27:30;16.50;99.90
30150;DHT22;16962;48.646;9.026;2023-09-07T21:30:38;16.60;1.00
30150;DHT22;16962;48.646;9.026;2023-09-07T21:33:42;16.60;1.00
30150;DHT22;16962;48.646;9.026;2023-09-07T21:36:42;16.60;99.90
30150;DHT22;16962;48.646;9.026;2023-09-07T21:39:50;16.60;1.00
30150;DHT22;16962;48.646;9.026;2023-09-07T21:42:44;16.60;1.00
30150;DHT22;16962;48.646;9.026;2023-09-07T21:45:39;16.60;1.00
30150;DHT22;16962;48.646;9.026;2023-09-07T21:48:28;16.50;1.00
30150;DHT22;16962;48.646;9.026;2023-09-07T21:51:35;16.40;55.00
30150;DHT22;16962;48.646;9.026;2023-09-07T21:54:27;16.40;99.90
30150;DHT22;16962;48.646;9.026;2023-09-07T21:57:16;16.40;1.00
30150;DHT22;16962;48.646;9.026;2023-09-07T22:00:16;16.20;99.90
30150;DHT22;16962;48.646;9.026;2023-09-07T22:03:06;16.10;99.90
30150;DHT22;16962;48.646;9.026;2023-09-07T22:05:58;16.10;57.40
30150;DHT22;16962;48.646;9.026;2023-09-07T22:08:48;16.00;1.00
30150;DHT22;16962;48.646;9.026;2023-09-07T22:11:43;15.90;99.90
30150;DHT22;16962;48.646;9.026;2023-09-07T22:14:34;15.80;99.90
30150;DHT22;16962;48.646;9.026;2023-09-07T22:17:22;15.70;99.90
30150;DHT22;16962;48.646;9.026;2023-09-07T22:20:10;15.60;99.90
30150;DHT22;16962;48.646;9.026;2023-09-07T22:23:00;15.50;1.00
30150;DHT22;16962;48.646;9.026;2023-09-07T22:25:51;15.40;1.00
30150;DHT22;16962;48.646;9.026;2023-09-07T22:28:42;15.40;1.00
30150;DHT22;16962;48.646;9.026;2023-09-07T22:31:30;15.40;24.70
30150;DHT22;16962;48.646;9.026;2023-09-07T22:34:21;15.50;62.00
30150;DHT22;16962;48.646;9.026;2023-09-07T22:37:19;15.50;32.70
30150;DHT22;16962;48.646;9.026;2023-09-07T22:40:10;15.40;64.30
30150;DHT22;16962;48.646;9.026;2023-09-07T22:43:03;15.40;99.90
30150;DHT22;16962;48.646;9.026;2023-09-07T22:46:05;15.30;99.90
30150;DHT22;16962;48.646;9.026;2023-09-07T22:48:54;15.20;99.90
30150;DHT22;16962;48.646;9.026;2023-09-07T22:51:42;15.10;99.90
30150;DHT22;16962;48.646;9.026;2023-09-07T22:54:29;15.00;99.90
30150;DHT22;16962;48.646;9.026;2023-09-07T22:57:17;14.90;99.90
30150;DHT22;16962;48.646;9.026;2023-09-07T23:00:09;14.90;99.90
30150;DHT22;16962;48.646;9.026;2023-09-07T23:03:01;14.90;99.90
30150;DHT22;16962;48.646;9.026;2023-09-07T23:05:49;14.80;99.90
30150;DHT22;16962;48.646;9.026;2023-09-07T23:08:40;14.90;99.90
30150;DHT22;16962;48.646;9.026;2023-09-07T23:11:40;14.80;99.90
30150;DHT22;16962;48.646;9.026;2023-09-07T23:14:33;14.70;99.90
30150;DHT22;16962;48.646;9.026;2023-09-07T23:17:25;14.70;99.90
30150;DHT22;16962;48.646;9.026;2023-09-07T23:20:13;14.70;99.90
30150;DHT22;16962;48.646;9.026;2023-09-07T23:23:02;14.70;99.90
30150;DHT22;16962;48.646;9.026;2023-09-07T23:25:55;14.60;99.90
30150;DHT22;16962;48.646;9.026;2023-09-07T23:28:48;14.60;99.90
30150;DHT22;16962;48.646;9.026;2023-09-07T23:31:38;14.60;99.90
30150;DHT22;16962;48.646;9.026;2023-09-07T23:34:28;14.50;99.90
30150;DHT22;16962;48.646;9.026;2023-09-07T23:37:18;14.40;99.90
30150;DHT22;16962;48.646;9.026;2023-09-07T23:40:07;14.50;99.90
30150;DHT22;16962;48.646;9.026;2023-09-07T23:42:58;14.40;99.90
30150;DHT22;16962;48.646;9.026;2023-09-07T23:45:47;14.30;99.90
30150;DHT22;16962;48.646;9.026;2023-09-07T23:48:36;14.30;99.90
30150;DHT22;16962;48.646;9.026;2023-09-07T23:51:31;14.40;99.90
30150;DHT22;16962;48.646;9.026;2023-09-07T23:54:18;14.40;99.90
30150;DHT22;16962;48.646;9.026;2023-09-07T23:57:09;14.40;99.90
30150;DHT22;16962;48.646;9.026;2023-09-07T23:59:59;14.30;99.90
